createdAt,value
2019-03-27T00:02:11.000Z,24.32
2019-03-27T00:12:11.000Z,24.27
2019-03-27T00:22:12.000Z,24.24
2019-03-27T00:32:11.000Z,24.17
2019-03-27T00:42:11.000Z,24.14
2019-03-27T00:52:11.000Z,24.1
2019-03-27T01:02:11.000Z,24
2019-03-27T01:12:11.000Z,23.99
2019-03-27T01:22:11.000Z,23.96
2019-03-27T01:32:12.000Z,23.93
2019-03-27T01:42:11.000Z,23.9
2019-03-27T01:52:13.000Z,23.78
2019-03-27T02:02:14.000Z,23.79
2019-03-27T02:12:11.000Z,23.74
2019-03-27T02:22:11.000Z,23.68
2019-03-27T02:32:11.000Z,23.71
2019-03-27T02:42:11.000Z,23.68
2019-03-27T02:52:12.000Z,23.61
2019-03-27T03:02:11.000Z,23.55
2019-03-27T03:12:11.000Z,23.53
2019-03-27T03:22:12.000Z,23.52
2019-03-27T03:32:12.000Z,23.46
2019-03-27T03:42:12.000Z,23.46
2019-03-27T03:52:12.000Z,23.4
2019-03-27T04:02:12.000Z,23.32
2019-03-27T04:12:12.000Z,23.3
2019-03-27T04:22:13.000Z,23.26
2019-03-27T04:32:12.000Z,23.23
2019-03-27T04:42:12.000Z,23.21
2019-03-27T04:52:12.000Z,23.22
2019-03-27T05:02:12.000Z,23.17
2019-03-27T05:12:12.000Z,23.17
2019-03-27T05:22:12.000Z,23.2
2019-03-27T05:32:12.000Z,23.19
2019-03-27T05:42:12.000Z,23.18
2019-03-27T05:52:12.000Z,23.19
2019-03-27T06:02:12.000Z,23.22
2019-03-27T06:12:12.000Z,23.17
2019-03-27T06:22:12.000Z,23.19
2019-03-27T06:32:12.000Z,23.22
2019-03-27T06:42:12.000Z,23.23
2019-03-27T06:52:12.000Z,23.23
2019-03-27T07:02:12.000Z,23.3
2019-03-27T07:12:12.000Z,23.33
2019-03-27T07:22:12.000Z,23.34
2019-03-27T07:32:12.000Z,23.33
2019-03-27T07:42:12.000Z,23.5
2019-03-27T07:52:12.000Z,23.51
2019-03-27T08:02:12.000Z,23.6
2019-03-27T08:12:12.000Z,23.67
2019-03-27T08:22:12.000Z,23.71
2019-03-27T08:32:12.000Z,23.72
2019-03-27T08:42:12.000Z,23.79
2019-03-27T08:52:12.000Z,23.8
2019-03-27T09:02:12.000Z,23.89
2019-03-27T09:12:12.000Z,24.04
2019-03-27T09:22:12.000Z,24.11
2019-03-27T09:32:12.000Z,24.29
2019-03-27T09:42:12.000Z,24.52
2019-03-27T09:52:12.000Z,24.75
2019-03-27T10:02:12.000Z,24.83
2019-03-27T10:12:12.000Z,24.92
2019-03-27T10:22:12.000Z,24.88
2019-03-27T10:32:12.000Z,24.92
2019-03-27T10:42:12.000Z,25.05
2019-03-27T10:52:13.000Z,25.05
2019-03-27T11:02:12.000Z,25.12
2019-03-27T11:12:12.000Z,25.15
2019-03-27T11:22:12.000Z,25.14
2019-03-27T11:32:12.000Z,25.26
2019-03-27T11:42:13.000Z,25.31
2019-03-27T12:02:15.000Z,25.32
2019-03-27T12:12:13.000Z,25.44
2019-03-27T12:22:13.000Z,25.43
2019-03-27T12:32:13.000Z,25.58
2019-03-27T12:42:14.000Z,25.64
2019-03-27T12:52:13.000Z,25.61
2019-03-27T13:02:13.000Z,25.63
2019-03-27T13:12:13.000Z,25.61
2019-03-27T13:22:13.000Z,25.64
2019-03-27T13:32:13.000Z,25.64
2019-03-27T13:42:13.000Z,25.65
2019-03-27T13:52:13.000Z,25.65
2019-03-27T14:02:13.000Z,25.67
2019-03-27T14:12:13.000Z,25.64
2019-03-27T14:22:13.000Z,25.62
2019-03-27T14:32:13.000Z,25.61
2019-03-27T14:42:13.000Z,25.6
2019-03-27T15:02:13.000Z,25.62
2019-03-27T15:12:13.000Z,25.61
2019-03-27T15:22:13.000Z,25.63
2019-03-27T15:32:13.000Z,25.67
2019-03-27T15:42:13.000Z,25.63
2019-03-27T15:52:13.000Z,25.66
2019-03-27T16:02:13.000Z,25.68
2019-03-27T16:12:13.000Z,25.62
2019-03-27T16:22:13.000Z,25.61
2019-03-27T16:32:13.000Z,25.64
2019-03-27T16:42:13.000Z,25.59
2019-03-27T16:52:13.000Z,25.5
2019-03-27T17:02:13.000Z,25.47
2019-03-27T17:12:13.000Z,25.45
2019-03-27T17:22:13.000Z,25.4
2019-03-27T17:32:13.000Z,25.37
2019-03-27T17:42:13.000Z,25.34
2019-03-27T17:52:14.000Z,25.29
2019-03-27T18:02:13.000Z,25.28
2019-03-27T18:12:13.000Z,25.24
2019-03-27T18:32:13.000Z,25.17
2019-03-27T18:42:13.000Z,25.16
2019-03-27T18:52:13.000Z,25.14
2019-03-27T19:02:13.000Z,25.1
2019-03-27T19:12:13.000Z,25.08
2019-03-27T19:22:14.000Z,25.05
2019-03-27T19:32:13.000Z,25.01
2019-03-27T19:42:14.000Z,25.02
2019-03-27T19:52:18.000Z,24.98
2019-03-27T20:02:14.000Z,24.94
2019-03-27T20:12:15.000Z,24.91
2019-03-27T20:22:14.000Z,24.9
2019-03-27T20:32:14.000Z,24.88
2019-03-27T20:42:14.000Z,24.86
2019-03-27T20:52:14.000Z,24.84
2019-03-27T21:02:14.000Z,24.81
2019-03-27T21:12:14.000Z,24.85
2019-03-27T21:22:14.000Z,24.79
2019-03-27T21:32:14.000Z,24.82
2019-03-27T21:42:14.000Z,24.81
2019-03-27T21:52:18.000Z,24.82
2019-03-27T22:02:14.000Z,24.81
2019-03-27T22:12:16.000Z,24.73
2019-03-27T22:22:15.000Z,24.77
2019-03-27T22:32:14.000Z,24.74
2019-03-27T22:42:14.000Z,24.77
2019-03-27T22:52:14.000Z,24.7
2019-03-27T23:02:14.000Z,24.67
2019-03-27T23:12:14.000Z,24.61
2019-03-27T23:22:14.000Z,24.58
2019-03-27T23:32:14.000Z,24.53
2019-03-27T23:42:14.000Z,24.46
2019-03-27T23:52:14.000Z,24.42
